createdAt,value
2022-12-04T00:03:18.950Z,2.60
2022-12-04T00:08:20.473Z,2.60
2022-12-04T00:13:21.914Z,2.60
2022-12-04T00:18:23.333Z,2.60
2022-12-04T00:23:24.800Z,2.60
2022-12-04T00:28:26.237Z,2.60
2022-12-04T00:33:30.755Z,2.60
2022-12-04T00:38:32.219Z,2.60
2022-12-04T00:43:33.682Z,2.60
2022-12-04T00:48:35.152Z,2.60
2022-12-04T00:53:36.594Z,2.60
2022-12-04T00:58:38.055Z,2.60
2022-12-04T01:03:39.499Z,2.50
2022-12-04T01:08:40.966Z,2.60
2022-12-04T01:13:42.433Z,2.60
2022-12-04T01:18:43.895Z,2.60
2022-12-04T01:23:45.363Z,2.60
2022-12-04T01:28:46.801Z,2.60
2022-12-04T01:33:48.242Z,2.50
2022-12-04T01:38:49.703Z,2.50
2022-12-04T01:43:51.162Z,2.50
2022-12-04T01:48:52.630Z,2.40
2022-12-04T01:53:54.073Z,2.30
2022-12-04T01:58:55.543Z,2.20
2022-12-04T02:03:56.982Z,2.10
2022-12-04T02:08:58.451Z,2.10
2022-12-04T02:13:59.881Z,2.10
2022-12-04T02:19:01.346Z,2.10
2022-12-04T02:24:02.898Z,2.20
2022-12-04T02:29:04.367Z,2.30
2022-12-04T02:34:05.836Z,2.30
2022-12-04T02:39:07.278Z,2.30
2022-12-04T02:44:08.718Z,2.40
2022-12-04T02:49:23.568Z,2.40
2022-12-04T02:54:35.165Z,2.40
2022-12-04T02:59:36.631Z,2.50
2022-12-04T03:04:38.094Z,2.50
2022-12-04T03:09:39.532Z,2.60
2022-12-04T03:14:40.965Z,2.50
2022-12-04T03:19:42.430Z,2.50
2022-12-04T03:24:43.902Z,2.40
2022-12-04T03:29:45.381Z,2.30
2022-12-04T03:34:46.808Z,2.10
2022-12-04T03:39:48.283Z,2.10
2022-12-04T03:44:49.754Z,2.00
2022-12-04T03:49:51.222Z,2.00
2022-12-04T03:54:52.658Z,1.90
2022-12-04T03:59:55.903Z,1.80
2022-12-04T04:04:57.782Z,1.80
2022-12-04T04:09:59.239Z,1.70
2022-12-04T04:15:00.671Z,1.70
2022-12-04T04:20:02.115Z,1.70
2022-12-04T04:25:03.542Z,1.70
2022-12-04T04:30:05.127Z,1.80
2022-12-04T04:35:06.581Z,1.80
2022-12-04T04:40:08.005Z,1.80
2022-12-04T04:45:09.471Z,1.80
2022-12-04T04:50:10.905Z,1.80
2022-12-04T04:55:12.374Z,1.80
2022-12-04T05:00:13.811Z,1.70
2022-12-04T05:05:15.237Z,1.60
2022-12-04T05:10:16.691Z,1.60
2022-12-04T05:15:18.164Z,1.40
2022-12-04T05:20:19.626Z,1.30
2022-12-04T05:25:21.062Z,1.30
2022-12-04T05:30:22.526Z,1.30
2022-12-04T05:35:24.021Z,1.30
2022-12-04T05:40:25.492Z,1.20
2022-12-04T05:45:26.921Z,1.20
2022-12-04T05:50:28.390Z,1.20
2022-12-04T05:55:29.858Z,1.10
2022-12-04T06:00:31.325Z,1.00
2022-12-04T06:05:32.798Z,1.00
2022-12-04T06:10:34.236Z,1.00
2022-12-04T06:15:35.707Z,1.00
2022-12-04T06:20:37.197Z,0.90
2022-12-04T06:25:38.718Z,0.90
2022-12-04T06:30:40.189Z,0.90
2022-12-04T06:35:41.626Z,0.90
2022-12-04T06:40:43.063Z,0.90
2022-12-04T06:45:44.560Z,0.90
2022-12-04T06:50:46.098Z,0.90
2022-12-04T06:55:47.564Z,1.00
2022-12-04T07:00:49.071Z,1.10
2022-12-04T07:05:50.542Z,1.20
2022-12-04T07:10:57.474Z,1.30
2022-12-04T07:16:00.546Z,1.40
2022-12-04T07:21:01.977Z,1.60
2022-12-04T07:26:03.458Z,1.70
2022-12-04T07:31:04.905Z,1.80
2022-12-04T07:36:06.344Z,1.90
2022-12-04T07:41:07.833Z,2.00
2022-12-04T07:46:09.327Z,2.10
2022-12-04T07:51:10.848Z,2.30
2022-12-04T07:56:12.284Z,2.40
2022-12-04T08:01:13.798Z,2.50
2022-12-04T08:06:15.320Z,2.60
2022-12-04T08:11:16.815Z,2.70
2022-12-04T08:16:18.311Z,2.80
2022-12-04T08:21:19.838Z,2.90
2022-12-04T08:26:21.277Z,2.90
2022-12-04T08:31:22.782Z,3.00
2022-12-04T08:36:24.275Z,3.00
2022-12-04T08:41:25.757Z,3.00
2022-12-04T08:46:27.282Z,3.00
2022-12-04T08:51:28.733Z,3.10
2022-12-04T08:56:30.196Z,3.20
2022-12-04T09:01:31.710Z,3.20
2022-12-04T09:06:33.206Z,3.40
2022-12-04T09:11:34.638Z,3.60
2022-12-04T09:16:36.067Z,3.70
2022-12-04T09:21:37.496Z,3.70
2022-12-04T09:26:38.966Z,3.80
2022-12-04T09:31:40.462Z,4.00
2022-12-04T09:36:41.971Z,4.00
2022-12-04T09:41:43.471Z,4.10
2022-12-04T09:46:45.367Z,4.20
2022-12-04T09:51:46.918Z,4.30
2022-12-04T09:56:48.386Z,4.60
2022-12-04T10:01:50.018Z,4.90
2022-12-04T10:06:51.454Z,5.20
2022-12-04T10:11:52.918Z,5.50
2022-12-04T10:16:54.373Z,5.60
2022-12-04T10:21:55.835Z,5.70
2022-12-04T10:26:57.312Z,5.90
2022-12-04T10:31:58.784Z,5.90
2022-12-04T10:37:00.259Z,6.00
2022-12-04T10:42:01.706Z,6.10
2022-12-04T10:47:03.244Z,6.10
2022-12-04T10:52:04.744Z,6.20
2022-12-04T10:57:06.233Z,6.20
2022-12-04T11:02:07.781Z,6.30
2022-12-04T11:07:09.330Z,6.40
2022-12-04T11:12:10.806Z,6.50
2022-12-04T11:17:12.241Z,6.70
2022-12-04T11:22:13.719Z,6.70
2022-12-04T11:27:15.199Z,6.70
2022-12-04T11:32:16.655Z,6.80
2022-12-04T11:37:18.124Z,7.00
2022-12-04T11:42:19.624Z,7.00
2022-12-04T11:47:21.088Z,6.90
2022-12-04T11:52:22.567Z,6.80
2022-12-04T11:57:24.005Z,6.80
2022-12-04T12:07:47.692Z,6.70
2022-12-04T12:12:49.210Z,6.80
2022-12-04T12:17:50.722Z,6.80
2022-12-04T12:22:52.231Z,6.90
2022-12-04T12:27:53.723Z,7.00
2022-12-04T12:32:55.178Z,7.00
2022-12-04T12:37:58.965Z,7.00
2022-12-04T12:43:00.553Z,6.80
2022-12-04T12:48:02.028Z,6.70
2022-12-04T12:53:03.474Z,6.60
2022-12-04T12:58:04.918Z,6.50
2022-12-04T13:03:06.449Z,6.40
2022-12-04T13:08:08.086Z,6.30
2022-12-04T13:13:09.578Z,6.30
2022-12-04T13:18:11.035Z,6.30
2022-12-04T13:23:12.464Z,6.30
2022-12-04T13:28:13.887Z,6.30
2022-12-04T13:33:15.330Z,6.30
2022-12-04T13:38:16.771Z,6.30
2022-12-04T13:43:18.201Z,6.30
2022-12-04T13:48:19.835Z,6.20
2022-12-04T13:53:24.055Z,6.20
2022-12-04T13:58:25.486Z,6.10
2022-12-04T14:03:26.947Z,6.00
2022-12-04T14:08:28.492Z,5.90
2022-12-04T14:13:29.962Z,5.90
2022-12-04T14:18:31.394Z,5.80
2022-12-04T14:23:32.822Z,5.70
2022-12-04T14:28:40.252Z,5.60
2022-12-04T14:33:43.532Z,5.50
2022-12-04T14:38:44.968Z,5.40
2022-12-04T14:43:46.448Z,5.30
2022-12-04T14:48:47.919Z,5.20
2022-12-04T14:53:49.393Z,5.10
2022-12-04T14:58:50.825Z,5.00
2022-12-04T15:03:52.328Z,4.90
2022-12-04T15:08:53.824Z,4.90
2022-12-04T15:13:55.286Z,4.80
2022-12-04T15:18:56.726Z,4.70
2022-12-04T15:23:58.172Z,4.70
2022-12-04T15:28:59.669Z,4.60
2022-12-04T15:34:01.103Z,4.50
2022-12-04T15:39:02.561Z,4.40
2022-12-04T15:49:29.394Z,4.30
2022-12-04T15:54:30.990Z,4.20
2022-12-04T15:59:32.463Z,4.10
2022-12-04T16:04:34.908Z,4.00
2022-12-04T16:09:36.433Z,3.90
2022-12-04T16:14:38.127Z,3.80
2022-12-04T16:19:39.561Z,3.70
2022-12-04T16:24:41.026Z,3.60
2022-12-04T16:29:42.469Z,3.60
2022-12-04T16:34:43.910Z,3.40
2022-12-04T16:39:45.333Z,3.40
2022-12-04T16:44:46.771Z,3.30
2022-12-04T16:49:48.228Z,3.20
2022-12-04T16:54:49.699Z,3.20
2022-12-04T16:59:51.163Z,3.10
2022-12-04T17:04:57.224Z,3.00
2022-12-04T17:09:59.443Z,3.00
2022-12-04T17:15:00.928Z,2.90
2022-12-04T17:20:02.377Z,2.70
2022-12-04T17:25:03.811Z,2.50
2022-12-04T17:30:05.255Z,2.30
2022-12-04T17:35:06.688Z,2.00
2022-12-04T17:40:08.164Z,1.90
2022-12-04T17:45:09.627Z,1.70
2022-12-04T17:50:11.105Z,1.60
2022-12-04T17:55:12.546Z,1.40
2022-12-04T18:00:13.976Z,1.40
2022-12-04T18:05:15.788Z,1.50
2022-12-04T18:10:26.604Z,1.50
2022-12-04T18:15:28.127Z,1.60
2022-12-04T18:20:29.615Z,1.70
2022-12-04T18:25:31.084Z,1.80
2022-12-04T18:30:32.556Z,1.80
2022-12-04T18:35:33.985Z,2.00
2022-12-04T18:40:35.444Z,2.10
2022-12-04T18:45:36.954Z,2.30
2022-12-04T18:50:38.454Z,2.40
2022-12-04T18:55:39.901Z,2.50
2022-12-04T19:00:41.373Z,2.60
2022-12-04T19:05:42.810Z,2.70
2022-12-04T19:10:44.261Z,2.70
2022-12-04T19:15:45.725Z,2.80
2022-12-04T19:20:47.196Z,2.70
2022-12-04T19:25:48.669Z,2.80
2022-12-04T19:30:50.109Z,2.80
2022-12-04T19:35:51.568Z,2.80
2022-12-04T19:40:53.024Z,2.80
2022-12-04T19:45:54.529Z,2.80
2022-12-04T19:50:56.018Z,2.70
2022-12-04T19:55:57.698Z,2.70
2022-12-04T20:00:59.355Z,2.70
2022-12-04T20:06:00.905Z,2.60
2022-12-04T20:11:02.376Z,2.60
2022-12-04T20:16:03.810Z,2.60
2022-12-04T20:21:05.271Z,2.60
2022-12-04T20:26:06.724Z,2.60
2022-12-04T20:31:08.215Z,2.60
2022-12-04T20:36:09.685Z,2.60
2022-12-04T20:41:11.163Z,2.60
2022-12-04T20:46:12.683Z,2.60
2022-12-04T20:51:14.171Z,2.60
2022-12-04T20:56:15.828Z,2.60
2022-12-04T21:01:17.353Z,2.60
2022-12-04T21:06:18.814Z,2.60
2022-12-04T21:11:20.288Z,2.70
2022-12-04T21:16:21.825Z,2.70
2022-12-04T21:21:23.334Z,2.60
2022-12-04T21:26:24.773Z,2.60
2022-12-04T21:31:26.310Z,2.60
2022-12-04T21:36:27.853Z,2.60
2022-12-04T21:41:29.293Z,2.60
2022-12-04T21:46:30.773Z,2.60
2022-12-04T21:51:56.422Z,2.60
2022-12-04T21:56:53.763Z,2.70
2022-12-04T22:01:55.264Z,2.70
2022-12-04T22:06:56.749Z,2.60
2022-12-04T22:11:58.185Z,2.60
2022-12-04T22:16:59.614Z,2.70
2022-12-04T22:22:01.084Z,2.70
2022-12-04T22:27:03.306Z,2.70
2022-12-04T22:32:04.737Z,2.70
2022-12-04T22:37:06.181Z,2.70
2022-12-04T22:42:07.625Z,2.70
2022-12-04T22:47:09.133Z,2.70
2022-12-04T22:52:10.598Z,2.70
2022-12-04T22:57:12.029Z,2.70
2022-12-04T23:02:13.473Z,2.70
2022-12-04T23:07:20.646Z,2.70
2022-12-04T23:12:22.180Z,2.70
2022-12-04T23:17:23.623Z,2.70
2022-12-04T23:22:25.084Z,2.70
2022-12-04T23:27:26.522Z,2.70
2022-12-04T23:32:27.952Z,2.70
2022-12-04T23:37:29.389Z,2.70
2022-12-04T23:42:30.824Z,2.70
2022-12-04T23:47:32.295Z,2.80
2022-12-04T23:52:34.268Z,2.80
2022-12-04T23:57:36.221Z,2.70
